Time;durP1;ratioP1;P1;durP2;ratioP2;P2;SDS_P1;SDS_P2;PMS_P1;PMS_P2;Temp;Humidity;BMP_temperature;BMP_pressure;BME280_temperature;BME280_humidity;BME280_pressure;Samples;Min_cycle;Max_cycle;Signal;HPM_P1;HPM_P2
2022/01/14 00:01:36;;;;;;;79.75;21.52;;;;;;;-0.65;100.00;98287.81;5006385;28;20085;-62
2022/01/14 00:04:05;;;;;;;148.10;22.13;;;;;;;-0.78;100.00;98295.81;5006926;28;20093;-60
2022/01/14 00:06:33;;;;;;;72.30;19.65;;;;;;;-0.79;100.00;98286.34;5005581;28;20084;-61
2022/01/14 00:09:06;;;;;;;73.50;21.15;;;;;;;-0.87;100.00;98283.03;5005944;28;20069;-62
2022/01/14 00:11:35;;;;;;;81.43;20.38;;;;;;;-1.63;100.00;98282.66;5005648;28;20073;-62
2022/01/14 00:14:21;;;;;;;86.50;21.38;;;;;;;-1.75;100.00;98280.28;5003821;28;20069;-61
2022/01/14 00:16:53;;;;;;;125.72;21.65;;;;;;;-1.35;100.00;98271.84;5011259;28;20104;-62
2022/01/14 00:19:21;;;;;;;138.40;22.30;;;;;;;-1.83;100.00;98277.81;5007448;28;20480;-62
2022/01/14 00:21:50;;;;;;;111.38;22.40;;;;;;;-1.52;100.00;98277.31;5004876;28;20062;-61
2022/01/14 00:24:32;;;;;;;125.10;22.73;;;;;;;-1.49;100.00;98277.25;5000849;28;20065;-60
2022/01/14 00:32:42;;;;;;;73.60;19.23;;;;;;;-1.14;100.00;98255.91;5004699;28;20057;-62
2022/01/14 00:35:11;;;;;;;62.42;19.38;;;;;;;-1.40;100.00;98258.16;5008001;28;20058;-61
2022/01/14 00:37:39;;;;;;;96.00;20.17;;;;;;;-1.34;100.00;98265.78;5004959;28;20058;-62
2022/01/14 00:40:11;;;;;;;95.70;20.08;;;;;;;-1.21;100.00;98257.75;5002880;28;20089;-61
2022/01/14 00:42:39;;;;;;;96.00;19.95;;;;;;;-1.27;100.00;98255.31;5003503;28;20081;-61
2022/01/14 00:45:10;;;;;;;68.68;19.20;;;;;;;-1.19;100.00;98257.75;5005637;28;20076;-62
2022/01/14 00:47:40;;;;;;;83.40;19.85;;;;;;;-1.31;100.00;98250.19;5004996;28;20588;-61
2022/01/14 00:50:11;;;;;;;111.70;24.02;;;;;;;-1.57;100.00;98245.50;5004481;28;20688;-61
2022/01/14 00:52:40;;;;;;;95.22;20.80;;;;;;;-2.02;100.00;98238.47;5003546;28;20088;-62
2022/01/14 00:55:14;;;;;;;80.13;21.03;;;;;;;-1.77;100.00;98246.69;5006599;28;20088;-60
2022/01/14 01:00:30;;;;;;;78.63;18.75;;;;;;;-2.09;100.00;98243.75;5001705;28;20080;-59
2022/01/14 01:02:59;;;;;;;51.60;18.10;;;;;;;-1.68;100.00;98233.59;5005987;28;20109;-60
2022/01/14 01:05:27;;;;;;;64.43;18.25;;;;;;;-1.93;100.00;98232.28;5004909;28;20080;-61
2022/01/14 01:08:03;;;;;;;70.40;18.17;;;;;;;-2.26;100.00;98234.50;5004270;28;20072;-61
2022/01/14 01:10:34;;;;;;;71.13;17.00;;;;;;;-2.24;100.00;98231.91;5006438;28;20077;-62
2022/01/14 01:13:09;;;;;;;56.67;17.85;;;;;;;-2.09;100.00;98228.25;5005278;28;20600;-62
2022/01/14 01:15:38;;;;;;;48.63;16.98;;;;;;;-1.82;100.00;98238.16;5003714;28;20135;-63
2022/01/14 01:18:08;;;;;;;66.43;17.50;;;;;;;-1.61;100.00;98236.94;5004711;28;20445;-60
2022/01/14 01:20:36;;;;;;;64.00;18.23;;;;;;;-1.97;100.00;98241.81;5003047;28;20514;-61
2022/01/14 01:23:05;;;;;;;63.33;16.92;;;;;;;-1.68;100.00;98233.59;5005650;28;20073;-62
2022/01/14 01:25:39;;;;;;;104.38;19.35;;;;;;;-1.64;100.00;98231.81;5004344;28;20504;-60
2022/01/14 01:28:08;;;;;;;71.15;18.88;;;;;;;-1.69;100.00;98247.41;5005151;28;20084;-60
2022/01/14 01:30:52;;;;;;;90.43;18.70;;;;;;;-1.53;100.00;98247.16;5004794;28;20059;-61
2022/01/14 01:33:20;;;;;;;125.50;20.00;;;;;;;-1.48;100.00;98246.19;5004095;28;20080;-61
2022/01/14 01:35:49;;;;;;;112.55;20.25;;;;;;;-1.65;100.00;98244.75;5002584;28;20706;-60
2022/01/14 01:38:17;;;;;;;110.30;21.05;;;;;;;-1.46;100.00;98236.66;4998292;28;20066;-61
2022/01/14 01:40:49;;;;;;;128.27;19.48;;;;;;;-1.74;100.00;98246.63;5003427;28;20082;-61
2022/01/14 01:43:20;;;;;;;73.38;18.80;;;;;;;-1.61;100.00;98242.13;5005593;28;20073;-60
2022/01/14 01:45:50;;;;;;;66.82;19.40;;;;;;;-1.34;100.00;98232.13;5003318;28;20491;-57
2022/01/14 01:48:18;;;;;;;81.88;19.95;;;;;;;-1.27;100.00;98234.59;5007797;28;20477;-60
2022/01/14 01:50:47;;;;;;;54.20;19.17;;;;;;;-1.22;100.00;98235.38;5004015;28;20455;-61
2022/01/14 01:53:15;;;;;;;46.65;19.38;;;;;;;-1.07;100.00;98243.72;5003151;28;20069;-62
2022/01/14 01:55:44;;;;;;;48.30;18.25;;;;;;;-1.17;100.00;98244.78;5002254;28;20085;-60
2022/01/14 01:58:13;;;;;;;56.05;19.13;;;;;;;-1.05;100.00;98244.56;5003173;28;20104;-61
2022/01/14 02:00:42;;;;;;;90.43;18.83;;;;;;;-1.07;100.00;98235.94;5002056;28;20078;-62
2022/01/14 02:03:13;;;;;;;74.75;18.83;;;;;;;-1.48;100.00;98247.91;5003963;28;20061;-59
2022/01/14 02:05:41;;;;;;;71.00;19.88;;;;;;;-1.62;100.00;98242.13;5001871;28;20069;-60
2022/01/14 02:08:10;;;;;;;56.63;18.92;;;;;;;-1.93;100.00;98235.75;5002989;28;20085;-58
2022/01/14 02:10:39;;;;;;;63.70;17.10;;;;;;;-1.60;100.00;98237.78;5003109;28;20480;-60
2022/01/14 02:13:11;;;;;;;54.97;18.13;;;;;;;-1.27;100.00;98237.19;5005662;28;20069;-60
2022/01/14 02:15:49;;;;;;;57.28;18.40;;;;;;;-1.24;100.00;98239.72;5002556;28;20645;-61
2022/01/14 02:18:33;;;;;;;73.38;19.50;;;;;;;-1.42;100.00;98237.47;5005432;28;20100;-60
2022/01/14 02:23:54;;;;;;;59.88;16.30;;;;;;;-1.58;100.00;98229.13;5004669;28;20065;-59
2022/01/14 02:26:23;;;;;;;41.30;17.27;;;;;;;-1.70;100.00;98226.75;5002006;28;20053;-61
2022/01/14 02:28:52;;;;;;;51.25;17.58;;;;;;;-1.33;100.00;98224.38;5001505;28;20165;-63
2022/01/14 02:31:20;;;;;;;44.28;18.30;;;;;;;-1.28;100.00;98216.50;5005909;28;20062;-61
2022/01/14 02:33:49;;;;;;;47.55;18.02;;;;;;;-1.46;100.00;98217.69;5002846;28;20061;-61
2022/01/14 02:36:18;;;;;;;37.88;17.55;;;;;;;-1.68;100.00;98217.22;5001918;28;20065;-61
2022/01/14 02:38:47;;;;;;;57.50;18.25;;;;;;;-1.57;100.00;98211.88;5003991;28;20096;-61
2022/01/14 02:41:16;;;;;;;48.65;17.48;;;;;;;-1.88;100.00;98201.19;5016125;28;20072;-60
2022/01/14 02:43:44;;;;;;;65.30;17.42;;;;;;;-1.65;100.00;98201.66;5002489;28;20065;-59
2022/01/14 02:46:15;;;;;;;55.03;18.73;;;;;;;-1.51;100.00;98188.47;5003218;28;20065;-61
2022/01/14 02:48:43;;;;;;;51.58;18.83;;;;;;;-1.77;100.00;98186.34;5001549;28;20080;-61
2022/01/14 02:51:15;;;;;;;59.35;19.33;;;;;;;-2.08;100.00;98186.84;5002897;28;20500;-59
2022/01/14 02:53:57;;;;;;;57.63;19.55;;;;;;;-1.91;100.00;98173.66;5002705;28;20073;-61
2022/01/14 02:56:30;;;;;;;52.67;19.65;;;;;;;-1.78;100.00;98182.06;5005084;28;20520;-61
2022/01/14 02:59:00;;;;;;;45.13;18.77;;;;;;;-1.57;100.00;98180.81;5006875;28;20066;-60
2022/01/14 03:01:29;;;;;;;52.83;17.85;;;;;;;-1.85;100.00;98177.88;5004569;28;20074;-61
2022/01/14 03:03:58;;;;;;;84.65;19.63;;;;;;;-1.28;100.00;98172.50;5003023;28;20092;-60
2022/01/14 03:06:28;;;;;;;128.07;22.00;;;;;;;-1.52;100.00;98173.81;5006090;28;20078;-62
2022/01/14 03:08:58;;;;;;;62.10;20.02;;;;;;;-1.24;100.00;98177.63;5007766;28;20485;-60
2022/01/14 03:11:30;;;;;;;124.30;19.65;;;;;;;-1.43;100.00;98181.44;5004736;28;20074;-59
2022/01/14 03:13:59;;;;;;;113.50;21.08;;;;;;;-1.77;100.00;98189.78;5006779;28;20527;-60
2022/01/14 03:16:28;;;;;;;128.35;21.95;;;;;;;-1.72;100.00;98179.34;5008901;28;20076;-61
2022/01/14 03:19:06;;;;;;;101.25;21.20;;;;;;;-1.39;100.00;98175.31;5005979;28;20146;-61
2022/01/14 03:21:39;;;;;;;98.55;20.92;;;;;;;-1.42;100.00;98172.78;5005718;28;20077;-60
2022/01/14 03:24:20;;;;;;;83.40;19.85;;;;;;;-1.09;100.00;98162.66;5005230;28;20069;-62
2022/01/14 03:26:52;;;;;;;147.60;23.90;;;;;;;-1.11;100.00;98157.50;5004527;28;20081;-61
2022/01/14 03:29:21;;;;;;;101.60;22.40;;;;;;;-1.52;100.00;98164.31;5004736;28;20077;-58
2022/01/14 03:31:49;;;;;;;90.82;21.42;;;;;;;-1.33;100.00;98159.66;5004197;28;20069;-60
2022/01/14 03:34:18;;;;;;;108.07;20.08;;;;;;;-1.32;100.00;98151.00;5009564;28;20100;-58
2022/01/14 03:36:47;;;;;;;109.00;21.40;;;;;;;-1.17;100.00;98146.41;5006450;28;20512;-60
2022/01/14 03:39:18;;;;;;;106.45;21.15;;;;;;;-1.37;100.00;98137.31;5005700;28;20443;-59
2022/01/14 03:41:47;;;;;;;;;;;;;;;-1.39;100.00;98141.66;5004402;28;20065;-59
2022/01/14 03:44:15;;;;;;;82.78;20.42;;;;;;;-1.50;100.00;98141.88;5004942;28;19972;-61
2022/01/14 03:46:44;;;;;;;80.38;20.30;;;;;;;-1.67;100.00;98134.44;5004299;28;20088;-61
2022/01/14 03:49:13;;;;;;;77.28;19.77;;;;;;;-1.54;100.00;98121.28;5008545;28;20053;-61
2022/01/14 03:51:42;;;;;;;76.18;22.35;;;;;;;-1.49;100.00;98122.88;5003856;28;20552;-61
2022/01/14 03:54:11;;;;;;;74.28;20.23;;;;;;;-1.53;100.00;98112.63;5004839;28;20077;-61
2022/01/14 03:56:41;;;;;;;80.53;20.50;;;;;;;-1.53;100.00;98115.22;5004410;28;20066;-60
2022/01/14 03:59:09;;;;;;;96.97;24.15;;;;;;;-1.70;100.00;98125.88;5004030;28;20092;-62
2022/01/14 04:01:37;;;;;;;116.18;23.20;;;;;;;-1.64;100.00;98117.16;5013396;28;20184;-61
2022/01/14 04:04:06;;;;;;;77.82;22.30;;;;;;;-1.41;100.00;98112.41;5009222;28;20061;-60
2022/01/14 04:06:34;;;;;;;73.85;22.20;;;;;;;-1.49;100.00;98114.25;5005143;28;20503;-60
2022/01/14 04:09:03;;;;;;;70.60;22.23;;;;;;;-1.81;100.00;98120.91;5007435;28;20076;-61
2022/01/14 04:11:33;;;;;;;69.05;21.42;;;;;;;-2.04;100.00;98115.28;5009791;28;20077;-60
2022/01/14 04:15:36;;;;;;;63.20;22.25;;;;;;;-1.87;100.00;98121.00;5004912;28;20057;-59
2022/01/14 04:16:57;;;;;;;77.90;21.33;;;;;;;-1.85;100.00;98121.00;5004095;28;20053;-60
2022/01/14 04:19:27;;;;;;;69.03;21.50;;;;;;;-2.06;100.00;98123.06;5007553;28;20129;-60
2022/01/14 04:21:56;;;;;;;72.53;20.73;;;;;;;-1.99;100.00;98119.50;5006034;28;20069;-61
2022/01/14 04:24:25;;;;;;;57.08;19.20;;;;;;;-2.04;100.00;98120.44;5001848;28;20142;-62
2022/01/14 04:26:53;;;;;;;80.35;21.70;;;;;;;-1.57;100.00;98117.00;5005682;28;20062;-61
2022/01/14 04:29:23;;;;;;;54.95;20.42;;;;;;;-1.59;100.00;98126.50;5002192;28;20446;-60
2022/01/14 04:31:51;;;;;;;79.95;20.35;;;;;;;-1.64;100.00;98127.50;5005027;28;20120;-59
2022/01/14 04:34:20;;;;;;;61.80;19.17;;;;;;;-1.64;100.00;98120.59;5007814;28;20100;-55
2022/01/14 04:36:48;;;;;;;56.53;19.27;;;;;;;-1.51;100.00;98108.28;5004441;28;20042;-59
2022/01/14 04:39:17;;;;;;;51.33;18.38;;;;;;;-1.67;100.00;98102.53;5003684;28;20072;-57
2022/01/14 04:41:45;;;;;;;68.70;21.23;;;;;;;-1.69;100.00;98102.59;5002051;28;20077;-58
2022/01/14 04:44:15;;;;;;;45.80;20.23;;;;;;;-1.59;100.00;98094.63;5003809;28;20061;-57
2022/01/14 04:47:13;;;;;;;50.03;20.05;;;;;;;-1.77;100.00;98099.28;5004310;28;20074;-59
2022/01/14 04:49:41;;;;;;;55.40;19.27;;;;;;;-1.91;100.00;98107.28;5003580;28;20074;-57
2022/01/14 04:52:10;;;;;;;50.05;20.38;;;;;;;-2.11;100.00;98095.59;5005836;28;20057;-59
2022/01/14 04:54:38;;;;;;;76.22;20.42;;;;;;;-1.75;100.00;98094.09;5006249;28;20061;-57
2022/01/14 04:57:07;;;;;;;46.20;19.48;;;;;;;-1.73;100.00;98095.75;5003763;28;20069;-59
2022/01/14 04:59:35;;;;;;;64.00;20.35;;;;;;;-1.61;100.00;98084.31;5004789;28;20073;-56
2022/01/14 05:02:06;;;;;;;63.42;21.42;;;;;;;-1.72;100.00;98088.84;5002635;28;20058;-58
2022/01/14 05:04:34;;;;;;;80.18;22.15;;;;;;;-1.97;100.00;98094.47;5005575;28;20074;-58
2022/01/14 05:07:03;;;;;;;66.75;21.30;;;;;;;-1.94;100.00;98101.31;5005052;28;20568;-52
2022/01/14 05:09:37;;;;;;;73.30;22.67;;;;;;;-2.03;100.00;98102.34;5003794;28;20429;-59
2022/01/14 05:12:09;;;;;;;56.80;20.90;;;;;;;-1.83;100.00;98094.22;5003714;28;20081;-57
2022/01/14 05:14:38;;;;;;;60.58;20.17;;;;;;;-2.13;100.00;98097.34;5004868;28;20072;-61
2022/01/14 05:17:07;;;;;;;67.43;22.45;;;;;;;-1.86;100.00;98107.19;5002674;28;20080;-57
2022/01/14 05:19:37;;;;;;;101.78;23.83;;;;;;;-2.03;100.00;98099.75;5002894;28;20081;-59
2022/01/14 05:22:06;;;;;;;65.25;22.50;;;;;;;-1.71;100.00;98099.16;5003176;28;20069;-60
2022/01/14 05:24:34;;;;;;;61.03;21.77;;;;;;;-1.94;100.00;98104.75;5008785;28;20118;-59
2022/01/14 05:27:03;;;;;;;70.35;23.98;;;;;;;-1.81;100.00;98105.38;5004135;28;20420;-57
2022/01/14 05:29:31;;;;;;;64.03;23.27;;;;;;;-1.86;100.00;98107.19;5005374;28;20061;-56
2022/01/14 05:32:03;;;;;;;51.15;23.15;;;;;;;-1.88;100.00;98106.38;5004895;28;20080;-59
2022/01/14 05:34:34;;;;;;;57.60;23.60;;;;;;;-1.75;100.00;98102.69;5010025;28;20096;-57
2022/01/14 05:37:04;;;;;;;52.97;22.33;;;;;;;-1.83;100.00;98101.97;5004806;28;20054;-59
2022/01/14 05:39:33;;;;;;;51.45;22.27;;;;;;;-1.85;100.00;98108.91;5005016;28;20088;-59
2022/01/14 05:42:06;;;;;;;50.15;20.65;;;;;;;-2.06;100.00;98102.41;4997093;28;20062;-57
2022/01/14 05:44:35;;;;;;;47.75;21.55;;;;;;;-2.15;100.00;98103.41;5007767;28;20073;-57
2022/01/14 05:47:04;;;;;;;48.40;21.23;;;;;;;-1.98;100.00;98102.25;5005509;28;20076;-59
2022/01/14 05:49:34;;;;;;;46.30;20.35;;;;;;;-2.09;100.00;98106.78;5004825;28;20080;-52
2022/01/14 05:52:03;;;;;;;51.13;20.48;;;;;;;-2.45;100.00;98109.91;5006475;28;20410;-56
2022/01/14 05:54:32;;;;;;;51.53;19.40;;;;;;;-2.18;100.00;98111.19;5007187;28;20057;-57
2022/01/14 05:57:00;;;;;;;50.40;20.08;;;;;;;-2.30;100.00;98108.00;5005110;28;20061;-58
2022/01/14 05:59:28;;;;;;;46.05;21.27;;;;;;;-2.07;100.00;98107.56;5005610;28;20065;-59
2022/01/14 06:01:57;;;;;;;46.75;20.77;;;;;;;-2.10;100.00;98103.31;5005416;28;20061;-57
2022/01/14 06:04:25;;;;;;;45.90;21.30;;;;;;;-2.36;100.00;98106.34;5012680;28;20073;-59
2022/01/14 06:06:55;;;;;;;44.83;21.00;;;;;;;-2.05;100.00;98101.50;5004509;28;20077;-59
2022/01/14 06:09:23;;;;;;;46.97;21.80;;;;;;;-2.17;100.00;98100.00;5004536;28;20730;-59
2022/01/14 06:11:52;;;;;;;59.88;20.92;;;;;;;-2.24;100.00;98110.44;5004401;28;20065;-59
2022/01/14 06:14:20;;;;;;;53.90;21.90;;;;;;;-2.26;100.00;98110.47;5004896;28;20492;-53
2022/01/14 06:16:49;;;;;;;53.20;23.05;;;;;;;-1.82;100.00;98115.78;5005279;28;20080;-56
2022/01/14 06:19:17;;;;;;;52.42;22.02;;;;;;;-2.21;100.00;98110.41;5007229;28;20151;-58
2022/01/14 06:21:45;;;;;;;53.25;21.95;;;;;;;-2.03;100.00;98109.22;5003944;28;20069;-60
2022/01/14 06:24:15;;;;;;;56.28;21.83;;;;;;;-2.02;100.00;98109.22;5004465;28;20073;-59
2022/01/14 06:26:44;;;;;;;53.63;22.05;;;;;;;-1.86;100.00;98112.34;5004660;28;20070;-60
2022/01/14 06:29:12;;;;;;;52.92;22.60;;;;;;;-1.52;100.00;98098.81;5005156;28;20094;-57
2022/01/14 06:31:40;;;;;;;53.25;22.67;;;;;;;-1.80;100.00;98101.91;5004275;28;20644;-56
2022/01/14 06:34:09;;;;;;;53.88;23.17;;;;;;;-1.56;100.00;98092.00;5006302;28;20084;-59
2022/01/14 06:36:37;;;;;;;53.45;23.60;;;;;;;-1.85;100.00;98093.41;5004633;28;20065;-55
2022/01/14 06:39:05;;;;;;;54.85;24.02;;;;;;;-1.95;100.00;98099.63;5010322;28;20519;-57
2022/01/14 06:41:35;;;;;;;55.67;23.90;;;;;;;-1.81;100.00;98091.63;5008295;28;20080;-56
2022/01/14 06:44:05;;;;;;;53.45;23.80;;;;;;;-1.82;100.00;98095.94;5011259;28;20073;-58
2022/01/14 06:46:33;;;;;;;50.15;22.65;;;;;;;-1.94;100.00;98093.56;5012185;28;20555;-54
2022/01/14 06:49:02;;;;;;;53.40;22.98;;;;;;;-1.62;100.00;98082.59;5010978;28;20107;-56
2022/01/14 06:51:30;;;;;;;50.65;23.48;;;;;;;-1.79;100.00;98088.13;5008437;28;20062;-56
2022/01/14 06:53:58;;;;;;;50.83;23.38;;;;;;;-1.77;100.00;98086.34;5009750;28;20073;-58
2022/01/14 06:56:27;;;;;;;56.42;23.58;;;;;;;-1.93;100.00;98078.03;5012990;28;20520;-59
2022/01/14 06:58:56;;;;;;;48.22;22.55;;;;;;;-2.05;100.00;98079.97;5008877;28;20077;-60
2022/01/14 07:01:25;;;;;;;54.15;24.50;;;;;;;-2.03;100.00;98088.53;5016193;28;20081;-53
2022/01/14 07:03:53;;;;;;;51.78;22.58;;;;;;;-1.97;100.00;98072.94;5008202;28;20061;-57
2022/01/14 07:06:22;;;;;;;53.17;23.52;;;;;;;-1.93;100.00;98082.31;5013142;28;20077;-55
2022/01/14 07:08:50;;;;;;;45.20;21.52;;;;;;;-1.94;100.00;98085.81;5010594;28;20484;-57
2022/01/14 07:11:19;;;;;;;49.05;22.60;;;;;;;-1.78;100.00;98086.38;5007386;28;20073;-58
2022/01/14 07:13:47;;;;;;;52.75;24.02;;;;;;;-1.90;100.00;98079.69;5007453;28;20077;-57
2022/01/14 07:16:17;;;;;;;53.85;23.88;;;;;;;-1.83;100.00;98088.19;5015886;28;20070;-56
2022/01/14 07:18:48;;;;;;;49.15;22.65;;;;;;;-1.74;100.00;98090.63;5007436;28;20101;-57
2022/01/14 07:21:16;;;;;;;52.65;22.88;;;;;;;-1.85;100.00;98100.31;5007409;28;20065;-56
2022/01/14 07:23:45;;;;;;;48.42;21.80;;;;;;;-1.71;100.00;98098.31;5007831;28;20473;-56
2022/01/14 07:26:13;;;;;;;50.85;23.10;;;;;;;-1.80;100.00;98101.06;5010681;28;20550;-59
2022/01/14 07:28:42;;;;;;;45.17;22.45;;;;;;;-2.03;100.00;98104.06;5007281;28;20085;-60
2022/01/14 07:31:13;;;;;;;48.83;22.33;;;;;;;-1.52;100.00;98096.22;5014904;28;20081;-59
2022/01/14 07:33:43;;;;;;;44.80;22.48;;;;;;;-1.44;100.00;98102.94;5007624;28;20062;-58
2022/01/14 07:36:12;;;;;;;50.03;22.90;;;;;;;-1.73;100.00;98108.66;5007103;28;20061;-58
2022/01/14 07:38:40;;;;;;;51.90;23.70;;;;;;;-1.73;100.00;98100.06;5007209;28;20073;-59
2022/01/14 07:41:08;;;;;;;47.05;22.27;;;;;;;-1.63;100.00;98109.34;5011451;28;20586;-56
2022/01/14 07:43:37;;;;;;;46.72;23.05;;;;;;;-1.75;100.00;98100.09;5007576;28;20496;-54
2022/01/14 07:46:06;;;;;;;47.00;22.73;;;;;;;-1.79;100.00;98097.59;5009964;28;20555;-59
2022/01/14 07:48:35;;;;;;;45.65;22.60;;;;;;;-1.60;100.00;98096.38;5006316;28;20456;-56
2022/01/14 07:51:04;;;;;;;43.50;22.73;;;;;;;-1.54;100.00;98093.66;5007074;28;20077;-57
2022/01/14 07:53:33;;;;;;;50.17;22.73;;;;;;;-1.68;100.00;98100.84;5007406;28;20488;-58
2022/01/14 07:56:01;;;;;;;42.30;22.08;;;;;;;-1.64;100.00;98096.47;5007987;28;20069;-57
2022/01/14 07:58:30;;;;;;;47.60;22.38;;;;;;;-1.66;100.00;98104.25;5012031;28;20080;-56
2022/01/14 08:00:58;;;;;;;46.75;23.55;;;;;;;-1.45;100.00;98097.78;5010480;28;21406;-55
2022/01/14 08:03:26;;;;;;;49.08;23.55;;;;;;;-1.37;100.00;98108.88;5006937;28;20077;-58
2022/01/14 08:05:57;;;;;;;47.08;21.75;;;;;;;-1.25;100.00;98110.34;5011581;28;20064;-56
2022/01/14 08:08:28;;;;;;;49.63;23.55;;;;;;;-1.13;100.00;98107.50;5006429;28;20085;-57
2022/01/14 08:10:58;;;;;;;43.90;21.17;;;;;;;-1.18;100.00;98117.09;5008928;28;20069;-55
2022/01/14 08:13:26;;;;;;;49.97;21.83;;;;;;;-1.29;100.00;98114.72;5004225;28;20086;-55
2022/01/14 08:15:55;;;;;;;48.00;22.20;;;;;;;-1.18;100.00;98105.88;5010130;28;20084;-55
2022/01/14 08:18:24;;;;;;;46.83;21.80;;;;;;;-1.06;100.00;98119.44;5006374;28;20084;-54
2022/01/14 08:20:52;;;;;;;45.13;21.75;;;;;;;-0.98;100.00;98116.69;5006881;28;20061;-49
2022/01/14 08:23:21;;;;;;;45.47;21.90;;;;;;;-1.08;100.00;98117.75;5006843;28;20130;-55
2022/01/14 08:25:53;;;;;;;47.65;24.13;;;;;;;-0.77;100.00;98113.59;5009300;28;20081;-55
2022/01/14 08:28:21;;;;;;;42.42;19.92;;;;;;;-1.22;100.00;98110.28;5009352;28;20081;-53
2022/01/14 08:31:08;;;;;;;42.58;21.42;;;;;;;-0.87;100.00;98099.16;5011708;28;20053;-57
2022/01/14 08:33:37;;;;;;;47.53;21.60;;;;;;;-0.64;100.00;98106.41;5005806;28;20052;-58
2022/01/14 08:36:05;;;;;;;43.78;22.60;;;;;;;-0.82;100.00;98104.25;5007295;28;20058;-54
2022/01/14 08:38:34;;;;;;;46.65;22.33;;;;;;;-0.65;100.00;98109.06;5006393;28;20481;-56
2022/01/14 08:41:04;;;;;;;39.65;20.10;;;;;;;-0.77;100.00;98111.00;5007736;28;20467;-58
2022/01/14 08:43:32;;;;;;;52.47;22.60;;;;;;;-0.28;100.00;98102.09;5007976;28;20089;-56
2022/01/14 08:46:02;;;;;;;47.13;22.08;;;;;;;-0.02;100.00;98103.19;5007651;28;20505;-57
2022/01/14 08:48:31;;;;;;;46.28;21.98;;;;;;;-0.41;100.00;98105.88;5005882;28;20065;-53
2022/01/14 08:51:00;;;;;;;44.90;22.80;;;;;;;-0.14;100.00;98106.94;5006246;28;20520;-55
2022/01/14 08:53:29;;;;;;;49.63;23.45;;;;;;;-0.27;100.00;98100.38;5006320;28;20069;-57
2022/01/14 08:55:57;;;;;;;45.05;21.77;;;;;;;-0.28;100.00;98096.06;5006079;28;20057;-54
2022/01/14 08:58:28;;;;;;;48.58;24.02;;;;;;;-0.10;100.00;98099.97;5009699;28;20081;-53
2022/01/14 09:00:56;;;;;;;47.35;24.08;;;;;;;-0.34;100.00;98097.06;5005842;28;20076;-56
2022/01/14 09:03:25;;;;;;;45.70;21.80;;;;;;;0.11;100.00;98094.22;5006147;28;20497;-55
2022/01/14 09:05:53;;;;;;;47.95;21.40;;;;;;;-0.01;100.00;98097.09;5006295;28;20777;-57
2022/01/14 09:08:21;;;;;;;44.13;21.67;;;;;;;0.30;100.00;98098.91;5005715;28;20070;-57
2022/01/14 09:10:50;;;;;;;42.17;22.40;;;;;;;0.63;100.00;98087.59;5005449;28;20126;-58
2022/01/14 09:13:18;;;;;;;51.13;24.17;;;;;;;0.87;100.00;98093.84;5008092;28;20555;-56
2022/01/14 09:15:48;;;;;;;44.78;22.23;;;;;;;0.74;100.00;98083.84;5012945;28;20072;-55
2022/01/14 09:18:17;;;;;;;44.85;21.63;;;;;;;0.69;100.00;98086.59;5004989;28;20456;-55
2022/01/14 09:20:45;;;;;;;41.45;21.02;;;;;;;0.54;100.00;98095.63;5006251;28;20065;-55
2022/01/14 09:23:17;;;;;;;38.70;21.10;;;;;;;0.69;100.00;98087.44;4999335;28;20080;-52
2022/01/14 09:25:46;;;;;;;42.83;21.95;;;;;;;0.77;100.00;98088.97;5012145;28;20550;-57
2022/01/14 09:28:14;;;;;;;43.25;20.92;;;;;;;0.79;100.00;98093.22;5007468;28;20073;-52
2022/01/14 09:30:43;;;;;;;40.55;21.45;;;;;;;0.80;100.00;98092.31;5005006;28;20062;-57
2022/01/14 09:33:12;;;;;;;48.80;22.23;;;;;;;0.79;100.00;98098.41;5005360;28;20064;-55
2022/01/14 09:35:41;;;;;;;41.75;21.48;;;;;;;0.53;100.00;98088.75;5012307;28;20551;-58
2022/01/14 09:38:09;;;;;;;47.08;22.20;;;;;;;0.88;100.00;98086.88;5005308;28;20069;-55
2022/01/14 09:40:39;;;;;;;43.85;19.80;;;;;;;0.63;100.00;98092.78;5005458;28;20081;-56
2022/01/14 09:43:07;;;;;;;45.25;21.98;;;;;;;0.86;100.00;98086.06;5000244;28;20074;-58
2022/01/14 09:45:56;;;;;;;38.20;20.15;;;;;;;1.03;100.00;98093.38;5010656;28;20558;-53
2022/01/14 09:48:26;;;;;;;35.33;18.08;;;;;;;1.03;100.00;98099.41;5002315;28;20065;-55
2022/01/14 09:50:55;;;;;;;;;;;;;;;1.07;100.00;98093.25;5010908;28;20076;-53
2022/01/14 09:53:23;;;;;;;38.00;20.08;;;;;;;1.14;100.00;98091.31;5004239;28;20276;-56
2022/01/14 09:55:51;;;;;;;34.00;18.65;;;;;;;1.06;100.00;98088.94;5006207;28;20073;-56
2022/01/14 09:58:21;;;;;;;38.10;19.98;;;;;;;1.24;100.00;98087.53;5008157;28;20062;-52
2022/01/14 10:00:50;;;;;;;39.80;20.33;;;;;;;1.43;100.00;98080.00;5009966;28;20069;-53
2022/01/14 10:03:21;;;;;;;42.97;21.70;;;;;;;1.38;100.00;98074.97;5005546;28;20491;-56
2022/01/14 10:05:52;;;;;;;38.70;20.45;;;;;;;1.37;100.00;98075.84;5003825;28;20729;-56
2022/01/14 10:08:25;;;;;;;37.90;21.02;;;;;;;1.53;100.00;98070.19;5006138;28;20076;-56
2022/01/14 10:10:56;;;;;;;40.60;21.02;;;;;;;1.53;100.00;98064.97;5009101;28;20069;-57
2022/01/14 10:13:26;;;;;;;38.15;20.55;;;;;;;1.48;100.00;98059.94;5009021;28;20093;-60
2022/01/14 10:16:00;;;;;;;42.72;23.42;;;;;;;1.81;100.00;98065.75;5009986;28;20087;-53
2022/01/14 10:18:30;;;;;;;34.05;19.35;;;;;;;1.66;100.00;98063.69;5010063;28;20069;-59
2022/01/14 10:21:05;;;;;;;40.45;22.33;;;;;;;2.10;100.00;98049.19;5013260;28;20073;-60
2022/01/14 10:23:44;;;;;;;40.92;22.38;;;;;;;2.29;100.00;98053.72;5007532;28;20076;-58
2022/01/14 10:26:13;;;;;;;36.83;19.95;;;;;;;1.98;100.00;98056.56;5008601;28;20073;-60
2022/01/14 10:28:44;;;;;;;35.90;21.02;;;;;;;1.82;100.00;98057.06;5008212;28;20081;-60
2022/01/14 10:31:13;;;;;;;36.72;20.60;;;;;;;1.99;100.00;98048.69;5014178;28;20447;-59
2022/01/14 10:33:41;;;;;;;40.60;21.33;;;;;;;2.13;100.00;98046.47;5009072;28;20535;-59
2022/01/14 10:36:20;;;;;;;39.13;21.70;;;;;;;2.32;100.00;98041.47;5011763;28;20061;-58
2022/01/14 10:38:49;;;;;;;39.72;20.92;;;;;;;2.31;100.00;98044.97;5008341;28;20080;-60
2022/01/14 10:41:19;;;;;;;36.40;21.58;;;;;;;2.67;100.00;98041.91;5010367;28;20084;-60
2022/01/14 10:43:47;;;;;;;38.30;21.83;;;;;;;2.63;100.00;98042.09;5008678;28;20052;-60
2022/01/14 10:46:16;;;;;;;36.10;20.27;;;;;;;2.41;100.00;98045.50;5013606;28;20073;-60
2022/01/14 10:48:46;;;;;;;35.08;19.33;;;;;;;2.66;100.00;98042.00;5006251;28;20077;-60
2022/01/14 10:51:18;;;;;;;36.20;19.67;;;;;;;2.78;100.00;98047.56;5007918;28;20062;-60
2022/01/14 10:53:51;;;;;;;33.50;19.73;;;;;;;2.85;100.00;98038.63;5016476;28;20073;-60
2022/01/14 10:56:20;;;;;;;33.53;19.75;;;;;;;3.01;100.00;98030.22;5009950;28;20072;-59
2022/01/14 10:58:51;;;;;;;34.60;19.50;;;;;;;3.15;100.00;98032.31;5007798;28;20468;-59
2022/01/14 11:01:22;;;;;;;33.92;19.77;;;;;;;3.29;100.00;98024.78;5015679;28;20547;-60
2022/01/14 11:03:52;;;;;;;;;;;;;;;3.43;100.00;98017.25;5008262;28;20092;-58
2022/01/14 11:06:23;;;;;;;36.08;18.80;;;;;;;3.66;100.00;98012.88;5010628;28;19957;-60
2022/01/14 11:08:56;;;;;;;34.80;20.40;;;;;;;3.79;100.00;98001.84;5007223;28;20073;-56
2022/01/14 11:11:25;;;;;;;35.67;18.98;;;;;;;3.65;100.00;98005.94;5006620;28;20552;-59
2022/01/14 11:13:54;;;;;;;27.08;16.88;;;;;;;3.47;100.00;98007.53;5006823;28;20077;-60
2022/01/14 11:16:23;;;;;;;30.35;18.50;;;;;;;3.86;100.00;97993.78;5006443;28;20277;-56
2022/01/14 11:18:51;;;;;;;28.52;16.38;;;;;;;3.72;100.00;97989.97;5008081;28;20070;-59
2022/01/14 11:24:09;;;;;;;28.98;16.42;;;;;;;3.96;100.00;97984.63;5007502;28;20527;-59
2022/01/14 11:26:39;;;;;;;26.80;16.45;;;;;;;4.04;100.00;97988.59;5008263;28;20066;-60
2022/01/14 11:29:11;;;;;;;25.58;16.58;;;;;;;4.43;100.00;97986.91;5022680;28;20692;-59
2022/01/14 11:31:40;;;;;;;24.52;15.50;;;;;;;4.32;100.00;97979.53;5007219;28;20489;-60
2022/01/14 11:34:11;;;;;;;27.65;17.08;;;;;;;4.53;100.00;97978.56;5009810;28;20080;-60
2022/01/14 11:36:51;;;;;;;29.02;17.10;;;;;;;4.41;100.00;97975.69;5005940;28;20069;-60
2022/01/14 11:39:21;;;;;;;28.85;17.33;;;;;;;4.98;100.00;97964.28;5007546;28;20070;-58